Time;durP1;ratioP1;P1;durP2;ratioP2;P2;SDS_P1;SDS_P2;PMS_P1;PMS_P2;Temp;Humidity;BMP_temperature;BMP_pressure;BME280_temperature;BME280_humidity;BME280_pressure;Samples;Min_cycle;Max_cycle;Signal;HPM_P1;HPM_P2
2022/08/26 00:02:02;;;;;;;1999.90;999.90;;;20.20;99.90;;;;;;5093453;28;20043;-75
2022/08/26 00:04:31;;;;;;;1999.90;999.90;;;20.20;99.90;;;;;;5081227;28;20074;-75
2022/08/26 00:06:56;;;;;;;1999.90;999.90;;;20.20;99.90;;;;;;5094009;28;20131;-74
2022/08/26 00:09:23;;;;;;;1999.90;999.90;;;20.20;99.90;;;;;;5093623;27;20134;-75
2022/08/26 00:11:49;;;;;;;1999.90;999.90;;;20.30;99.90;;;;;;5104970;28;20538;-75
2022/08/26 00:14:15;;;;;;;1999.90;999.90;;;20.20;99.90;;;;;;5076928;28;20079;-74
2022/08/26 00:16:41;;;;;;;1999.90;999.90;;;20.30;99.90;;;;;;5076526;28;20061;-75
2022/08/26 00:19:07;;;;;;;1999.90;999.90;;;20.30;99.90;;;;;;5066305;28;20036;-74
2022/08/26 00:21:33;;;;;;;1999.90;999.90;;;20.30;99.90;;;;;;5089438;28;20385;-75
2022/08/26 00:23:58;;;;;;;1999.90;999.90;;;20.30;99.90;;;;;;5079845;28;20050;-74
2022/08/26 00:26:24;;;;;;;1999.90;999.90;;;20.30;99.90;;;;;;5082007;28;20459;-75
2022/08/26 00:28:49;;;;;;;1999.90;999.90;;;20.40;99.90;;;;;;5071224;28;20090;-75
2022/08/26 00:31:15;;;;;;;1999.90;999.90;;;20.40;99.90;;;;;;5087198;28;20074;-75
2022/08/26 00:33:41;;;;;;;1999.90;999.90;;;20.40;99.90;;;;;;5074081;28;20042;-75
2022/08/26 00:36:08;;;;;;;1999.90;999.90;;;20.40;99.90;;;;;;5071471;28;20047;-75
2022/08/26 00:38:35;;;;;;;1999.90;999.90;;;20.30;99.90;;;;;;5067887;28;20469;-74
2022/08/26 00:41:01;;;;;;;1999.90;999.90;;;20.30;99.90;;;;;;5088199;27;20105;-75
2022/08/26 00:43:32;;;;;;;1999.90;999.90;;;20.40;99.90;;;;;;5092453;28;20288;-75
2022/08/26 00:46:05;;;;;;;1999.90;999.90;;;20.40;99.90;;;;;;5067180;28;20060;-75
2022/08/26 00:48:32;;;;;;;1999.90;999.90;;;20.40;99.90;;;;;;5077831;27;20415;-75
2022/08/26 00:51:05;;;;;;;1999.90;999.90;;;20.40;99.90;;;;;;5099899;28;20432;-75
2022/08/26 00:53:35;;;;;;;1999.90;999.90;;;20.40;99.90;;;;;;5088790;28;20036;-75
2022/08/26 00:56:07;;;;;;;1999.90;999.90;;;20.40;99.90;;;;;;5074952;28;20039;-75
2022/08/26 00:58:36;;;;;;;1999.90;999.90;;;20.40;99.90;;;;;;5091796;28;20119;-75
2022/08/26 01:01:02;;;;;;;1999.90;999.90;;;20.40;99.90;;;;;;5091904;28;20469;-75
2022/08/26 01:03:32;;;;;;;1999.90;999.90;;;20.30;99.90;;;;;;5077824;28;20031;-74
2022/08/26 01:06:00;;;;;;;1999.90;999.90;;;20.40;99.90;;;;;;5074817;28;20047;-75
2022/08/26 01:08:26;;;;;;;1999.90;999.90;;;20.40;99.90;;;;;;5092122;28;20047;-74
2022/08/26 01:10:54;;;;;;;1999.90;999.90;;;20.40;99.90;;;;;;5088048;28;20497;-75
2022/08/26 01:13:20;;;;;;;1999.90;999.90;;;20.40;99.90;;;;;;5124014;27;20118;-74
2022/08/26 01:15:50;;;;;;;1999.90;999.90;;;20.40;99.90;;;;;;5090928;28;20139;-75
2022/08/26 01:18:16;;;;;;;1999.90;999.90;;;20.40;99.90;;;;;;5081588;28;20561;-75
2022/08/26 01:21:07;;;;;;;1999.90;999.90;;;20.30;99.90;;;;;;5089508;28;20043;-75
2022/08/26 01:23:37;;;;;;;1999.90;999.90;;;20.30;99.90;;;;;;5080129;28;20040;-75
2022/08/26 01:26:08;;;;;;;1999.90;999.90;;;20.30;99.90;;;;;;5052512;28;20483;-74
2022/08/26 01:28:35;;;;;;;1999.90;999.90;;;20.40;99.90;;;;;;5061275;28;20036;-75
2022/08/26 01:31:04;;;;;;;1999.90;999.90;;;20.40;99.90;;;;;;5076933;27;20055;-75
2022/08/26 01:33:39;;;;;;;1999.90;999.90;;;20.40;99.90;;;;;;5080180;28;20043;-74
2022/08/26 01:36:06;;;;;;;1999.90;999.90;;;20.30;99.90;;;;;;5088507;28;20044;-75
2022/08/26 01:38:32;;;;;;;1999.90;999.90;;;20.30;99.90;;;;;;5074133;28;20027;-75
2022/08/26 01:40:59;;;;;;;1999.90;999.90;;;20.40;99.90;;;;;;5091801;28;20032;-75
2022/08/26 01:43:28;;;;;;;1999.90;999.90;;;20.30;99.90;;;;;;5072830;28;20152;-75
2022/08/26 01:45:55;;;;;;;1999.90;999.90;;;20.30;99.90;;;;;;5065359;28;20044;-74
2022/08/26 01:48:26;;;;;;;1999.90;999.90;;;20.40;99.90;;;;;;5090704;28;20519;-74
2022/08/26 01:50:52;;;;;;;1999.90;999.90;;;20.40;99.90;;;;;;5091053;28;20043;-75
2022/08/26 01:53:20;;;;;;;1999.90;999.90;;;20.40;99.90;;;;;;5090653;28;20122;-75
2022/08/26 01:55:49;;;;;;;1999.90;999.90;;;20.40;99.90;;;;;;5073220;28;20050;-75
2022/08/26 01:58:22;;;;;;;1999.90;999.90;;;20.40;99.90;;;;;;5074275;28;20349;-74
2022/08/26 02:00:48;;;;;;;1999.90;999.90;;;20.30;99.90;;;;;;5081024;28;20096;-75
2022/08/26 02:03:16;;;;;;;1999.90;999.90;;;20.40;99.90;;;;;;5074112;28;20078;-75
2022/08/26 02:05:43;;;;;;;1999.90;999.90;;;20.40;99.90;;;;;;5091328;28;20073;-74
2022/08/26 02:08:10;;;;;;;1999.90;999.90;;;20.30;99.90;;;;;;5091473;28;20488;-74
2022/08/26 02:10:36;;;;;;;1999.90;999.90;;;20.30;99.90;;;;;;5070016;28;20148;-74
2022/08/26 02:13:02;;;;;;;1999.90;999.90;;;20.30;99.90;;;;;;5091391;28;20051;-75
2022/08/26 02:15:28;;;;;;;1999.90;999.90;;;20.30;99.90;;;;;;5072830;28;20044;-75
2022/08/26 02:17:54;;;;;;;1999.90;999.90;;;20.40;99.90;;;;;;5090101;28;20047;-74
2022/08/26 02:20:20;;;;;;;1999.90;999.90;;;20.30;99.90;;;;;;5085037;28;20104;-74
2022/08/26 02:22:46;;;;;;;1999.90;999.90;;;20.30;99.90;;;;;;5073700;28;20043;-74
2022/08/26 02:25:23;;;;;;;1999.90;999.90;;;20.30;99.90;;;;;;5090252;28;20081;-75
2022/08/26 02:27:49;;;;;;;1999.90;999.90;;;20.30;99.90;;;;;;5077898;28;20069;-75
2022/08/26 02:30:21;;;;;;;1999.90;999.90;;;20.30;99.90;;;;;;5083189;28;20463;-74
2022/08/26 02:32:48;;;;;;;1999.90;999.90;;;20.30;99.90;;;;;;5058551;28;20052;-75
2022/08/26 02:35:15;;;;;;;1999.90;999.90;;;20.40;99.90;;;;;;5075596;28;20399;-75
2022/08/26 02:37:41;;;;;;;1999.90;999.90;;;20.40;99.90;;;;;;5083354;28;20536;-75
2022/08/26 02:40:10;;;;;;;1999.90;999.90;;;20.40;99.90;;;;;;5105851;28;20582;-75
2022/08/26 02:42:36;;;;;;;1999.90;999.90;;;20.40;99.90;;;;;;5088612;28;20039;-75
2022/08/26 02:45:03;;;;;;;1999.90;999.90;;;20.40;99.90;;;;;;5065200;28;20098;-74
2022/08/26 02:47:32;;;;;;;1999.90;999.90;;;20.30;99.90;;;;;;5087437;28;20039;-75
2022/08/26 02:49:58;;;;;;;1999.90;999.90;;;20.30;99.90;;;;;;5073995;28;20864;-75
2022/08/26 02:52:24;;;;;;;1999.90;999.90;;;20.30;99.90;;;;;;5070745;28;20048;-75
2022/08/26 02:54:50;;;;;;;1999.90;999.90;;;20.30;99.90;;;;;;5095782;28;20667;-75
2022/08/26 02:57:16;;;;;;;1999.90;999.90;;;20.30;99.90;;;;;;5095822;28;20027;-75
2022/08/26 02:59:42;;;;;;;1999.90;999.90;;;20.30;99.90;;;;;;5073545;28;20035;-75
2022/08/26 03:02:09;;;;;;;1999.90;999.90;;;20.30;99.90;;;;;;5072421;28;20092;-75
2022/08/26 03:04:36;;;;;;;1999.90;999.90;;;20.20;99.90;;;;;;5071125;28;20548;-74
2022/08/26 03:07:03;;;;;;;1999.90;999.90;;;20.30;99.90;;;;;;5095575;28;20499;-74
2022/08/26 03:09:28;;;;;;;1999.90;999.90;;;20.30;99.90;;;;;;5072329;28;20035;-75
2022/08/26 03:11:54;;;;;;;1999.90;999.90;;;20.30;99.90;;;;;;5080067;28;20761;-75
2022/08/26 03:14:22;;;;;;;1999.90;999.90;;;20.30;99.90;;;;;;5071022;28;20078;-75
2022/08/26 03:16:50;;;;;;;1999.90;999.90;;;20.30;99.90;;;;;;5063081;28;20075;-75
2022/08/26 03:19:17;;;;;;;1999.90;999.90;;;20.30;99.90;;;;;;5083723;28;20044;-75
2022/08/26 03:21:43;;;;;;;1999.90;999.90;;;20.30;99.90;;;;;;5090323;28;20044;-75
2022/08/26 03:24:12;;;;;;;1999.90;999.90;;;20.30;99.90;;;;;;5070887;28;20050;-75
2022/08/26 03:26:38;;;;;;;1999.90;999.90;;;20.30;99.90;;;;;;5061877;28;20048;-75
2022/08/26 03:31:49;;;;;;;1999.90;999.90;;;20.30;99.90;;;;;;5085429;28;20420;-75
2022/08/26 03:34:16;;;;;;;1999.90;999.90;;;20.30;99.90;;;;;;5074062;28;20101;-75
2022/08/26 03:36:42;;;;;;;1999.90;999.90;;;20.20;99.90;;;;;;5093617;28;20119;-75
2022/08/26 03:39:08;;;;;;;1999.90;999.90;;;20.30;99.90;;;;;;5092285;28;20104;-75
2022/08/26 03:41:34;;;;;;;1999.90;999.90;;;20.30;99.90;;;;;;5102833;28;20108;-75
2022/08/26 03:44:01;;;;;;;1999.90;999.90;;;20.20;99.90;;;;;;5072859;28;20130;-75
2022/08/26 03:46:27;;;;;;;1999.90;999.90;;;20.20;99.90;;;;;;5093013;28;20036;-75
2022/08/26 03:48:52;;;;;;;1999.90;999.90;;;20.20;99.90;;;;;;5090369;28;20510;-75
2022/08/26 03:51:18;;;;;;;1999.90;999.90;;;20.20;99.90;;;;;;5093342;28;20567;-75
2022/08/26 03:53:46;;;;;;;1999.90;999.90;;;20.20;99.90;;;;;;5076433;28;20032;-75
2022/08/26 03:56:12;;;;;;;1999.90;999.90;;;20.20;99.90;;;;;;5078945;28;20087;-75
2022/08/26 03:58:37;;;;;;;1999.90;999.90;;;20.20;99.90;;;;;;5072158;28;20040;-75
2022/08/26 04:01:04;;;;;;;1999.90;999.90;;;20.20;99.90;;;;;;5087459;28;20035;-75
2022/08/26 04:06:13;;;;;;;1999.90;999.90;;;20.10;99.90;;;;;;5082962;28;20566;-75
2022/08/26 04:08:39;;;;;;;1999.90;999.90;;;20.10;99.90;;;;;;5092947;28;20130;-74
2022/08/26 04:11:05;;;;;;;1999.90;999.90;;;20.10;99.90;;;;;;5074977;28;20122;-75
2022/08/26 04:13:31;;;;;;;1999.90;999.90;;;20.10;99.90;;;;;;5076439;28;20071;-75
2022/08/26 04:15:58;;;;;;;1999.90;999.90;;;20.10;99.90;;;;;;5067351;28;20156;-75
2022/08/26 04:18:26;;;;;;;1999.90;999.90;;;20.20;99.90;;;;;;5076604;28;20038;-74
2022/08/26 04:20:52;;;;;;;1999.90;999.90;;;20.20;99.90;;;;;;5072988;28;20034;-75
2022/08/26 04:23:18;;;;;;;1999.90;999.90;;;20.20;99.90;;;;;;5075960;28;20456;-75
2022/08/26 04:25:44;;;;;;;1999.90;999.90;;;20.10;99.90;;;;;;5073329;28;20039;-74
2022/08/26 04:28:10;;;;;;;1999.90;999.90;;;20.10;99.90;;;;;;5101756;28;20044;-75
2022/08/26 04:30:37;;;;;;;1999.90;999.90;;;20.10;99.90;;;;;;5060395;28;20048;-75
2022/08/26 04:33:03;;;;;;;1999.90;999.90;;;20.10;99.90;;;;;;5055308;28;20119;-74
2022/08/26 04:35:30;;;;;;;1999.90;999.90;;;20.10;99.90;;;;;;5048887;28;20036;-75
2022/08/26 04:37:56;;;;;;;1999.90;999.90;;;20.10;99.90;;;;;;5062743;28;20138;-75
2022/08/26 04:40:22;;;;;;;1999.90;999.90;;;20.10;99.90;;;;;;5059776;28;20122;-75
2022/08/26 04:42:49;;;;;;;1999.90;999.90;;;20.00;99.90;;;;;;5057425;28;20077;-75
2022/08/26 04:45:14;;;;;;;1999.90;999.90;;;20.10;99.90;;;;;;5057273;28;20046;-75
2022/08/26 04:47:40;;;;;;;1999.90;999.90;;;20.10;99.90;;;;;;5064843;28;20048;-75
2022/08/26 04:50:07;;;;;;;1999.90;999.90;;;20.00;99.90;;;;;;5054191;28;20124;-74
2022/08/26 04:52:33;;;;;;;1999.90;999.90;;;20.00;99.90;;;;;;5069464;28;20044;-75
2022/08/26 04:54:58;;;;;;;1999.90;999.90;;;20.00;99.90;;;;;;5055510;28;20561;-75
2022/08/26 04:57:24;;;;;;;1999.90;999.90;;;20.00;99.90;;;;;;5072143;28;20576;-75
2022/08/26 04:59:49;;;;;;;1999.90;999.90;;;20.00;99.90;;;;;;5069241;28;20047;-74
2022/08/26 05:02:15;;;;;;;1999.90;999.90;;;20.00;99.90;;;;;;5072182;28;20048;-75
2022/08/26 05:04:42;;;;;;;1999.90;999.90;;;20.00;99.90;;;;;;5060592;28;20499;-75
2022/08/26 05:07:09;;;;;;;1999.90;999.90;;;20.10;99.90;;;;;;5053371;28;20075;-75
2022/08/26 05:09:35;;;;;;;1999.90;999.90;;;20.00;99.90;;;;;;5066063;28;20090;-75
2022/08/26 05:12:01;;;;;;;1999.90;999.90;;;20.10;99.90;;;;;;5085283;28;20441;-76
2022/08/26 05:14:27;;;;;;;1999.90;999.90;;;20.10;99.90;;;;;;5051706;28;20036;-75
2022/08/26 05:16:53;;;;;;;1999.90;999.90;;;20.10;99.90;;;;;;5070526;28;20047;-75
2022/08/26 05:19:18;;;;;;;1999.90;999.90;;;20.10;99.90;;;;;;5068811;28;20067;-75
2022/08/26 05:21:44;;;;;;;1999.90;999.90;;;20.10;99.90;;;;;;5070971;28;20055;-74
2022/08/26 05:24:11;;;;;;;1999.90;999.90;;;20.10;99.90;;;;;;5047899;28;20066;-75
2022/08/26 05:26:36;;;;;;;1999.90;999.90;;;20.20;99.90;;;;;;5071285;28;20582;-75
2022/08/26 05:29:03;;;;;;;1999.90;999.90;;;20.20;99.90;;;;;;5057281;28;20127;-75
2022/08/26 05:31:32;;;;;;;1999.90;999.90;;;20.20;99.90;;;;;;5071350;28;20071;-74
2022/08/26 05:34:00;;;;;;;1999.90;999.90;;;20.20;99.90;;;;;;5066740;28;20040;-75
2022/08/26 05:36:27;;;;;;;1999.90;999.90;;;20.20;99.90;;;;;;5060185;28;20070;-74
2022/08/26 05:38:55;;;;;;;1999.90;999.90;;;20.30;99.90;;;;;;5066545;28;20578;-75
2022/08/26 05:41:27;;;;;;;1999.90;999.90;;;20.30;99.90;;;;;;5079744;28;20066;-75
2022/08/26 05:43:55;;;;;;;1999.90;999.90;;;20.40;99.90;;;;;;5053686;28;20418;-75
2022/08/26 05:46:21;;;;;;;1999.90;999.90;;;20.40;99.90;;;;;;5048516;28;20040;-74
2022/08/26 05:48:46;;;;;;;1999.90;999.90;;;20.40;99.90;;;;;;5054196;28;20044;-75
2022/08/26 05:51:12;;;;;;;1999.90;999.90;;;20.50;99.90;;;;;;5070734;28;20051;-75
2022/08/26 05:53:40;;;;;;;1999.90;999.90;;;20.50;99.90;;;;;;5065327;28;20090;-75
2022/08/26 05:56:07;;;;;;;1999.90;999.90;;;20.50;99.90;;;;;;5049415;28;20036;-75
2022/08/26 05:58:35;;;;;;;1999.90;999.90;;;20.50;99.90;;;;;;5069103;28;20515;-75
2022/08/26 06:01:02;;;;;;;1999.90;999.90;;;20.40;99.90;;;;;;5043765;28;20040;-75
2022/08/26 06:03:30;;;;;;;1999.90;999.90;;;20.40;99.90;;;;;;5054340;28;20051;-75
2022/08/26 06:05:56;;;;;;;1999.90;999.90;;;20.50;99.90;;;;;;5070598;28;20119;-75
2022/08/26 06:08:22;;;;;;;1999.90;999.90;;;20.50;99.90;;;;;;5070972;28;20039;-74
2022/08/26 06:10:58;;;;;;;1999.90;999.90;;;20.50;99.90;;;;;;5042293;28;20087;-75
2022/08/26 06:13:25;;;;;;;1999.90;999.90;;;20.50;99.90;;;;;;5065553;28;20039;-74
2022/08/26 06:15:52;;;;;;;1999.90;999.90;;;20.40;99.90;;;;;;5049960;28;20040;-75
2022/08/26 06:18:23;;;;;;;1999.90;999.90;;;20.40;99.90;;;;;;5083690;28;20062;-75
2022/08/26 06:20:49;;;;;;;1999.90;999.90;;;20.40;99.90;;;;;;5049659;28;20051;-75
2022/08/26 06:26:03;;;;;;;1999.90;999.90;;;20.40;99.90;;;;;;5062112;28;20055;-75
2022/08/26 06:28:28;;;;;;;1999.90;999.90;;;20.30;99.90;;;;;;5043203;28;20044;-75
2022/08/26 06:30:54;;;;;;;1999.90;999.90;;;20.30;99.90;;;;;;5067476;28;20089;-75
2022/08/26 06:33:22;;;;;;;1999.90;999.90;;;20.30;99.90;;;;;;5050949;28;20484;-75
2022/08/26 06:35:49;;;;;;;1999.90;999.90;;;20.40;99.90;;;;;;5065762;28;20046;-75
2022/08/26 06:38:15;;;;;;;1999.90;999.90;;;20.30;99.90;;;;;;5069460;28;20040;-75
2022/08/26 06:40:47;;;;;;;1999.90;999.90;;;20.30;99.90;;;;;;5066970;28;20070;-75
2022/08/26 06:43:18;;;;;;;1999.90;999.90;;;20.30;99.90;;;;;;5064122;28;20035;-75
2022/08/26 06:45:44;;;;;;;1999.90;999.90;;;20.30;99.90;;;;;;5086048;28;20044;-75
2022/08/26 06:48:15;;;;;;;1999.90;999.90;;;20.30;99.90;;;;;;5054526;28;20047;-75
2022/08/26 06:50:41;;;;;;;1999.90;999.90;;;20.30;99.90;;;;;;5070278;28;20046;-75
2022/08/26 06:53:09;;;;;;;1999.90;999.90;;;20.20;99.90;;;;;;5060198;28;20064;-74
2022/08/26 06:55:42;;;;;;;1999.90;999.90;;;20.30;99.90;;;;;;5053642;28;20449;-74
2022/08/26 06:58:09;;;;;;;1999.90;999.90;;;20.30;99.90;;;;;;5056964;28;20775;-76
2022/08/26 07:00:35;;;;;;;1999.90;999.90;;;20.20;99.90;;;;;;5071335;28;20123;-75
2022/08/26 07:03:01;;;;;;;1999.90;999.90;;;20.30;99.90;;;;;;5053620;28;20051;-75
2022/08/26 07:05:27;;;;;;;1999.90;999.90;;;20.30;99.90;;;;;;5055617;28;20036;-75
2022/08/26 07:07:53;;;;;;;1999.90;999.90;;;20.30;99.90;;;;;;5068255;28;20671;-75
2022/08/26 07:10:18;;;;;;;1999.90;999.90;;;20.30;99.90;;;;;;5058433;28;20070;-76
2022/08/26 07:12:44;;;;;;;1999.90;999.90;;;20.30;99.90;;;;;;5056222;28;20032;-76
2022/08/26 07:15:12;;;;;;;1999.90;999.90;;;20.30;99.90;;;;;;5057392;28;20036;-75
2022/08/26 07:17:37;;;;;;;1999.90;999.90;;;20.40;99.90;;;;;;5060020;28;20035;-76
2022/08/26 07:20:06;;;;;;;1999.90;999.90;;;20.40;99.90;;;;;;5057217;28;20046;-76
2022/08/26 07:22:32;;;;;;;1999.90;999.90;;;20.40;99.90;;;;;;5107846;28;20043;-76
2022/08/26 07:24:57;;;;;;;1999.90;999.90;;;20.40;99.90;;;;;;5071001;28;20050;-76
2022/08/26 07:27:23;;;;;;;1999.90;999.90;;;20.40;99.90;;;;;;5070062;28;20123;-76
2022/08/26 07:29:48;;;;;;;1999.90;999.90;;;20.40;99.90;;;;;;5063106;28;20512;-76
2022/08/26 07:32:15;;;;;;;1999.90;999.90;;;20.30;99.90;;;;;;5055280;28;20050;-76
2022/08/26 07:34:41;;;;;;;1999.90;999.90;;;20.40;99.90;;;;;;5075932;28;20059;-76
2022/08/26 07:37:07;;;;;;;1999.90;999.90;;;20.40;99.90;;;;;;5073814;28;20040;-76
2022/08/26 07:39:33;;;;;;;1999.90;999.90;;;20.50;99.90;;;;;;5057168;28;20049;-76
2022/08/26 07:42:03;;;;;;;1999.90;999.90;;;20.50;99.90;;;;;;5075071;28;20051;-76
2022/08/26 07:44:29;;;;;;;1999.90;999.90;;;20.50;99.90;;;;;;5064041;28;20043;-76
2022/08/26 07:46:58;;;;;;;1999.90;999.90;;;20.50;99.90;;;;;;5058512;28;20070;-77
2022/08/26 07:49:25;;;;;;;1999.90;999.90;;;20.50;99.90;;;;;;5063278;28;20044;-76
2022/08/26 07:51:52;;;;;;;1999.90;999.90;;;20.50;99.90;;;;;;5048500;28;20035;-75
2022/08/26 07:54:18;;;;;;;1999.90;999.90;;;20.50;99.90;;;;;;5055959;28;20036;-76
2022/08/26 07:56:43;;;;;;;1999.90;999.90;;;20.50;99.90;;;;;;5054402;28;20446;-76
2022/08/26 07:59:10;;;;;;;1999.90;999.90;;;20.50;99.90;;;;;;5057899;28;20036;-76
2022/08/26 08:01:36;;;;;;;1999.90;999.90;;;20.40;99.90;;;;;;5066010;28;20063;-76
2022/08/26 08:04:04;;;;;;;1999.90;999.90;;;20.30;99.90;;;;;;5090805;28;20487;-76
2022/08/26 08:06:29;;;;;;;1999.90;999.90;;;20.30;99.90;;;;;;5069060;28;20052;-76
2022/08/26 08:08:55;;;;;;;1999.90;999.90;;;20.20;99.90;;;;;;5059482;28;20046;-76
2022/08/26 08:11:22;;;;;;;1999.90;999.90;;;20.20;99.90;;;;;;5064908;28;20044;-76
2022/08/26 08:13:49;;;;;;;1999.90;999.90;;;20.20;99.90;;;;;;5052433;28;20036;-73
2022/08/26 08:16:15;;;;;;;1999.90;999.90;;;20.20;99.90;;;;;;5053278;28;20043;-73
2022/08/26 08:18:41;;;;;;;1999.90;999.90;;;20.20;99.90;;;;;;5068329;28;20484;-73
2022/08/26 08:21:07;;;;;;;1999.90;999.90;;;20.20;99.90;;;;;;5052922;28;20142;-73
2022/08/26 08:23:33;;;;;;;1999.90;999.90;;;20.20;99.90;;;;;;5073653;28;20102;-75
2022/08/26 08:26:07;;;;;;;1999.90;999.90;;;20.20;99.90;;;;;;5067129;28;20118;-75
2022/08/26 08:28:33;;;;;;;1999.90;999.90;;;20.20;99.90;;;;;;5065505;28;20054;-75
2022/08/26 08:31:00;;;;;;;1999.90;999.90;;;20.20;99.90;;;;;;5069638;28;20080;-76
2022/08/26 08:33:28;;;;;;;1999.90;999.90;;;20.20;99.90;;;;;;5065652;28;20446;-76
2022/08/26 08:35:58;;;;;;;1999.90;999.90;;;20.20;99.90;;;;;;5068109;28;20747;-76
2022/08/26 08:38:24;;;;;;;1999.90;999.90;;;20.20;99.90;;;;;;5070963;28;20036;-76
2022/08/26 08:40:51;;;;;;;1999.90;999.90;;;20.30;99.90;;;;;;5082430;28;20063;-74
2022/08/26 08:43:31;;;;;;;1999.90;999.90;;;20.30;99.90;;;;;;5068365;28;20040;-77
2022/08/26 08:46:03;;;;;;;1999.90;999.90;;;20.30;99.90;;;;;;5067241;28;20477;-77
2022/08/26 08:48:33;;;;;;;1999.90;999.90;;;20.40;99.90;;;;;;5049349;28;20511;-76
2022/08/26 08:51:13;;;;;;;1999.90;999.90;;;20.40;99.90;;;;;;5052810;28;20102;-77
2022/08/26 08:53:43;;;;;;;1999.90;999.90;;;20.50;99.90;;;;;;5063033;28;20105;-77
2022/08/26 08:56:22;;;;;;;1999.90;999.90;;;20.50;99.90;;;;;;5086956;28;20043;-76
2022/08/26 08:59:23;;;;;;;1999.90;999.90;;;20.60;99.90;;;;;;5070820;28;20041;-77
2022/08/26 09:01:51;;;;;;;1999.90;999.90;;;20.60;99.90;;;;;;5076911;28;20144;-76
2022/08/26 09:04:42;;;;;;;1999.90;999.90;;;20.70;99.90;;;;;;5057907;28;20048;-77
2022/08/26 09:07:12;;;;;;;1999.90;999.90;;;20.80;99.90;;;;;;5070167;28;20143;-78
2022/08/26 09:09:43;;;;;;;1999.90;999.90;;;20.90;99.90;;;;;;5065399;28;20569;-77
2022/08/26 09:12:19;;;;;;;1999.90;999.90;;;21.00;99.90;;;;;;5056264;28;20041;-75
2022/08/26 09:14:46;;;;;;;1999.90;999.90;;;21.10;99.90;;;;;;5047173;28;20043;-75
2022/08/26 09:17:18;;;;;;;1999.90;999.90;;;21.20;99.90;;;;;;5050787;28;20403;-74
2022/08/26 09:19:51;;;;;;;1999.90;999.90;;;21.20;99.90;;;;;;5046746;28;20036;-74
2022/08/26 09:22:37;;;;;;;1999.90;999.90;;;21.20;99.90;;;;;;5072314;28;20074;-74
2022/08/26 09:25:07;;;;;;;1999.90;999.90;;;21.20;99.90;;;;;;5064661;28;20041;-75
2022/08/26 09:27:48;;;;;;;1999.90;999.90;;;21.20;99.90;;;;;;5046593;28;20074;-74
2022/08/26 09:30:25;;;;;;;1999.90;999.90;;;21.30;99.90;;;;;;5063478;28;20114;-75
2022/08/26 09:33:18;;;;;;;1999.90;999.90;;;21.30;99.90;;;;;;5062231;28;20051;-75
2022/08/26 09:35:47;;;;;;;1999.90;999.90;;;21.30;99.90;;;;;;5065044;28;20523;-75
2022/08/26 09:38:32;;;;;;;1999.90;999.90;;;21.30;99.90;;;;;;5057995;28;20071;-74
2022/08/26 09:41:04;;;;;;;1999.90;999.90;;;21.30;99.90;;;;;;5071522;28;20447;-75
2022/08/26 09:43:30;;;;;;;1999.90;999.90;;;21.30;99.90;;;;;;5067695;28;20044;-75
2022/08/26 09:46:18;;;;;;;1999.90;999.90;;;21.30;99.90;;;;;;5054794;28;20171;-75
2022/08/26 09:48:43;;;;;;;1999.90;999.90;;;21.30;99.90;;;;;;5083772;28;20127;-75
2022/08/26 09:51:30;;;;;;;1999.90;999.90;;;21.30;99.90;;;;;;5072783;28;20166;-75
2022/08/26 09:53:59;;;;;;;1999.90;999.90;;;21.20;99.90;;;;;;5063871;28;20227;-75
2022/08/26 09:56:36;;;;;;;1999.90;999.90;;;21.20;99.90;;;;;;5047232;28;20131;-74
2022/08/26 09:59:02;;;;;;;1999.90;999.90;;;21.10;99.90;;;;;;5041491;28;20040;-75
2022/08/26 10:01:37;;;;;;;1999.90;999.90;;;21.10;99.90;;;;;;5066124;28;20044;-74
2022/08/26 10:04:24;;;;;;;1999.90;999.90;;;21.00;99.90;;;;;;5064089;28;20050;-75
2022/08/26 10:06:53;;;;;;;1999.90;999.90;;;21.00;99.90;;;;;;5082763;28;20036;-75
2022/08/26 10:09:20;;;;;;;1999.90;999.90;;;20.90;99.90;;;;;;5050226;28;20082;-75
2022/08/26 10:11:55;;;;;;;1999.90;999.90;;;20.90;99.90;;;;;;5063066;28;20122;-74
2022/08/26 10:14:32;;;;;;;1999.90;999.90;;;20.90;99.90;;;;;;5044403;28;20046;-75
2022/08/26 10:17:04;;;;;;;1999.90;999.90;;;20.80;99.90;;;;;;5063337;28;20046;-74
2022/08/26 10:20:10;;;;;;;1999.90;999.90;;;20.80;99.90;;;;;;5045509;28;20119;-75
2022/08/26 10:23:04;;;;;;;1999.90;999.90;;;20.80;99.90;;;;;;4949227;28;20046;-75
2022/08/26 10:25:40;;;;;;;1999.90;999.90;;;20.80;99.90;;;;;;5066008;28;20044;-75
2022/08/26 10:28:16;;;;;;;1999.90;999.90;;;20.70;99.90;;;;;;5046503;28;20051;-75
2022/08/26 10:30:49;;;;;;;1999.90;999.90;;;20.70;99.90;;;;;;5066936;28;20055;-76
2022/08/26 10:33:14;;;;;;;1999.90;999.90;;;20.60;99.90;;;;;;5049292;28;20044;-75
2022/08/26 10:35:53;;;;;;;1999.90;999.90;;;20.50;99.90;;;;;;5051538;28;20036;-75
2022/08/26 10:38:41;;;;;;;1999.90;999.90;;;20.50;99.90;;;;;;5068179;28;20032;-75
2022/08/26 10:41:15;;;;;;;1999.90;999.90;;;20.50;99.90;;;;;;5055063;28;20062;-75
2022/08/26 10:43:57;;;;;;;1999.90;999.90;;;20.60;99.90;;;;;;5071780;28;20066;-75
2022/08/26 10:46:27;;;;;;;1999.90;999.90;;;20.70;99.90;;;;;;5069689;28;20085;-75
2022/08/26 10:48:57;;;;;;;1999.90;999.90;;;20.80;99.90;;;;;;5079612;28;20445;-75
2022/08/26 10:51:27;;;;;;;1999.90;999.90;;;21.00;99.90;;;;;;5054557;28;20031;-75
2022/08/26 10:54:04;;;;;;;1999.90;999.90;;;21.10;99.90;;;;;;5074988;28;20047;-75
2022/08/26 10:56:51;;;;;;;1999.90;999.90;;;21.20;99.90;;;;;;5052504;28;20043;-75
2022/08/26 10:59:38;;;;;;;1999.90;999.90;;;21.30;99.90;;;;;;5067661;28;20089;-76
2022/08/26 11:02:10;;;;;;;1999.90;999.90;;;21.40;99.90;;;;;;5064151;28;20498;-75
2022/08/26 11:04:40;;;;;;;1999.90;999.90;;;21.30;99.90;;;;;;5051810;28;20437;-75
2022/08/26 11:07:39;;;;;;;1999.90;999.90;;;21.30;99.90;;;;;;5063973;28;20499;-75
2022/08/26 11:10:08;;;;;;;1999.90;999.90;;;21.30;99.90;;;;;;5067063;28;20573;-75
2022/08/26 11:12:33;;;;;;;1999.90;999.90;;;21.30;99.90;;;;;;5067914;28;20068;-76
2022/08/26 11:14:59;;;;;;;1999.90;999.90;;;21.30;99.90;;;;;;5070034;28;20071;-75
2022/08/26 11:17:43;;;;;;;1999.90;999.90;;;21.30;99.90;;;;;;5047796;28;20122;-75
2022/08/26 11:20:34;;;;;;;1999.90;999.90;;;21.30;99.90;;;;;;5053828;28;20438;-75
2022/08/26 11:23:13;;;;;;;1999.90;999.90;;;21.30;99.90;;;;;;5064801;28;20048;-75
2022/08/26 11:25:59;;;;;;;1999.90;999.90;;;21.20;99.90;;;;;;5036277;28;20041;-75
2022/08/26 11:28:36;;;;;;;1999.90;999.90;;;21.00;99.90;;;;;;5060887;28;20048;-75
2022/08/26 11:31:22;;;;;;;1999.90;999.90;;;20.90;99.90;;;;;;5068380;28;20117;-75
2022/08/26 11:34:02;;;;;;;1999.90;999.90;;;20.80;99.90;;;;;;5037505;28;20313;-75
2022/08/26 11:36:47;;;;;;;1999.90;999.90;;;20.60;99.90;;;;;;5049720;28;20047;-75
2022/08/26 11:39:29;;;;;;;1999.90;999.90;;;20.60;99.90;;;;;;5066473;28;20043;-75
2022/08/26 11:42:00;;;;;;;1999.90;999.90;;;20.60;99.90;;;;;;5042945;28;20705;-75
2022/08/26 11:44:36;;;;;;;1999.90;999.90;;;20.60;99.90;;;;;;5067378;28;20388;-75
2022/08/26 11:47:02;;;;;;;1999.90;999.90;;;20.60;99.90;;;;;;5060436;28;20044;-75
2022/08/26 11:49:30;;;;;;;1999.90;999.90;;;20.60;99.90;;;;;;5069535;28;20082;-76
2022/08/26 11:52:16;;;;;;;1999.90;999.90;;;20.70;99.90;;;;;;5062462;28;20127;-76
2022/08/26 11:55:00;;;;;;;1999.90;999.90;;;20.70;99.90;;;;;;5056710;28;20464;-75
2022/08/26 11:57:26;;;;;;;1999.90;999.90;;;20.70;99.90;;;;;;5054682;28;20036;-75
2022/08/26 11:59:52;;;;;;;1999.90;999.90;;;20.60;99.90;;;;;;5055873;28;20073;-75
2022/08/26 12:02:18;;;;;;;1999.90;999.90;;;20.60;99.90;;;;;;5056093;28;20066;-75
2022/08/26 12:04:47;;;;;;;1999.90;999.90;;;20.50;99.90;;;;;;5073401;28;20510;-75
2022/08/26 12:07:14;;;;;;;1999.90;999.90;;;20.40;99.90;;;;;;5068009;28;20059;-75
2022/08/26 12:09:53;;;;;;;1999.90;999.90;;;20.40;99.90;;;;;;5073096;28;20399;-75
2022/08/26 12:12:27;;;;;;;1999.90;999.90;;;20.40;99.90;;;;;;5073240;28;20119;-75
2022/08/26 12:15:14;;;;;;;1999.90;999.90;;;20.40;99.90;;;;;;5071108;28;20519;-75
2022/08/26 12:17:40;;;;;;;1999.90;999.90;;;20.40;99.90;;;;;;5045446;28;20032;-75
2022/08/26 12:20:54;;;;;;;1999.90;999.90;;;20.50;99.90;;;;;;5053278;28;20036;-75